createdAt,value
2019-04-04T00:01:23.427Z,95194.52
2019-04-04T00:03:52.724Z,95193.20
2019-04-04T00:06:22.154Z,95199.66
2019-04-04T00:08:51.407Z,95208.44
2019-04-04T00:11:20.910Z,95219.84
2019-04-04T00:13:50.206Z,95221.48
2019-04-04T00:16:19.701Z,95206.05
2019-04-04T00:18:49.114Z,95191.95
2019-04-04T00:21:18.487Z,95200.42
2019-04-04T00:23:47.832Z,95201.50
2019-04-04T00:26:17.202Z,95195.16
2019-04-04T00:28:46.644Z,95198.91
2019-04-04T00:31:18.839Z,95196.23
2019-04-04T00:33:47.055Z,95189.61
2019-04-04T00:36:16.377Z,95182.70
2019-04-04T00:38:45.726Z,95176.63
2019-04-04T00:41:15.057Z,95154.08
2019-04-04T00:43:44.433Z,95157.29
2019-04-04T00:46:13.667Z,95172.39
2019-04-04T00:48:42.982Z,95175.34
2019-04-04T00:51:12.293Z,95171.06
2019-04-04T00:53:43.039Z,95162.57
2019-04-04T00:56:12.813Z,95164.70
2019-04-04T00:58:42.237Z,95174.83
2019-04-04T01:01:11.616Z,95170.85
2019-04-04T01:03:41.027Z,95171.14
2019-04-04T01:06:10.458Z,95162.36
2019-04-04T01:08:39.766Z,95157.59
2019-04-04T01:11:09.035Z,95150.95
2019-04-04T01:13:38.423Z,95146.94
2019-04-04T01:16:07.793Z,95149.09
2019-04-04T01:18:37.612Z,95133.95
2019-04-04T01:21:06.942Z,95131.57
2019-04-04T01:23:36.266Z,95131.53
2019-04-04T01:26:05.679Z,95112.16
2019-04-04T01:28:35.074Z,95104.96
2019-04-04T01:31:04.363Z,95094.89
2019-04-04T01:33:33.736Z,95080.80
2019-04-04T01:36:03.131Z,95075.47
2019-04-04T01:38:32.614Z,95078.11
2019-04-04T01:41:04.274Z,95094.09
2019-04-04T01:43:33.090Z,95108.70
2019-04-04T01:46:02.400Z,95104.16
2019-04-04T01:48:31.828Z,95085.05
2019-04-04T01:51:01.193Z,95077.33
2019-04-04T01:53:30.876Z,95080.27
2019-04-04T01:56:00.479Z,95068.57
2019-04-04T01:58:29.789Z,95059.79
2019-04-04T02:00:59.184Z,95051.03
2019-04-04T02:03:28.580Z,95048.89
2019-04-04T02:05:58.160Z,95041.47
2019-04-04T02:08:28.183Z,95030.84
2019-04-04T02:10:57.563Z,95044.91
2019-04-04T02:13:26.869Z,95069.08
2019-04-04T02:15:56.317Z,95075.21
2019-04-04T02:18:25.616Z,95081.84
2019-04-04T02:20:57.591Z,95102.81
2019-04-04T02:23:26.198Z,95109.98
2019-04-04T02:25:55.622Z,95092.48
2019-04-04T02:28:24.986Z,95087.39
2019-04-04T02:30:54.460Z,95087.95
2019-04-04T02:33:23.639Z,95082.11
2019-04-04T02:35:52.961Z,95075.73
2019-04-04T02:38:27.093Z,95073.62
2019-04-04T02:40:53.426Z,95068.83
2019-04-04T02:43:27.420Z,95062.99
2019-04-04T02:45:53.869Z,95064.59
2019-04-04T02:48:24.470Z,95050.78
2019-04-04T02:50:54.244Z,95052.64
2019-04-04T02:53:23.593Z,95046.78
2019-04-04T02:55:52.940Z,95063.79
2019-04-04T02:58:22.391Z,95073.34
2019-04-04T03:00:51.747Z,95084.73
2019-04-04T03:03:21.159Z,95060.32
2019-04-04T03:05:51.954Z,95036.41
2019-04-04T03:08:21.716Z,95060.34
2019-04-04T03:10:51.186Z,95080.52
2019-04-04T03:13:23.688Z,95075.20
2019-04-04T03:15:53.041Z,95065.89
2019-04-04T03:18:22.317Z,95048.63
2019-04-04T03:20:51.671Z,95026.33
2019-04-04T03:23:21.023Z,95026.58
2019-04-04T03:25:50.359Z,95034.00
2019-04-04T03:28:19.744Z,95037.20
2019-04-04T03:30:58.113Z,95044.11
2019-04-04T03:33:20.278Z,95050.20
2019-04-04T03:35:49.643Z,95043.84
2019-04-04T03:38:19.158Z,95037.73
2019-04-04T03:40:48.495Z,95045.70
2019-04-04T03:43:17.808Z,95046.77
2019-04-04T03:45:47.065Z,95035.59
2019-04-04T03:48:17.581Z,95026.58
2019-04-04T03:50:47.467Z,95025.26
2019-04-04T03:53:17.977Z,95005.88
2019-04-04T03:55:47.317Z,94994.97
2019-04-04T03:58:16.649Z,94998.17
2019-04-04T04:00:45.987Z,95002.95
2019-04-04T04:03:15.503Z,94987.57
2019-04-04T04:05:44.899Z,94975.08
2019-04-04T04:08:14.220Z,94957.56
2019-04-04T04:10:43.621Z,94956.23
2019-04-04T04:13:16.128Z,94972.15
2019-04-04T04:15:44.090Z,94984.35
2019-04-04T04:18:13.551Z,94989.67
2019-04-04T04:20:42.843Z,94985.67
2019-04-04T04:23:12.321Z,94972.41
2019-04-04T04:25:44.734Z,94964.69
2019-04-04T04:28:14.271Z,94975.59
2019-04-04T04:30:43.700Z,94981.98
2019-04-04T04:33:13.239Z,94967.91
2019-04-04T04:35:42.900Z,94980.11
2019-04-04T04:38:12.190Z,94996.82
2019-04-04T04:40:41.632Z,94996.81
2019-04-04T04:43:10.962Z,94983.56
2019-04-04T04:45:43.886Z,94977.18
2019-04-04T04:48:11.504Z,94979.30
2019-04-04T04:50:41.146Z,94992.55
2019-04-04T04:53:10.623Z,94998.95
2019-04-04T04:55:40.121Z,94996.83
2019-04-04T04:58:10.250Z,95007.95
2019-04-04T05:00:40.749Z,95012.49
2019-04-04T05:03:10.089Z,95010.89
2019-04-04T05:05:39.440Z,95007.19
2019-04-04T05:08:10.185Z,95002.15
2019-04-04T05:10:39.947Z,94992.06
2019-04-04T05:13:09.390Z,95002.95
2019-04-04T05:15:38.729Z,95007.45
2019-04-04T05:18:08.137Z,95010.92
2019-04-04T05:20:37.430Z,95023.38
2019-04-04T05:23:06.825Z,95021.27
2019-04-04T05:25:36.090Z,95021.81
2019-04-04T05:28:06.383Z,95020.74
2019-04-04T05:30:35.960Z,95017.83
2019-04-04T05:33:05.290Z,95021.02
2019-04-04T05:35:37.613Z,95018.36
2019-04-04T05:38:07.726Z,95031.11
2019-04-04T05:40:36.849Z,95025.80
2019-04-04T05:43:06.256Z,95028.97
2019-04-04T05:45:35.748Z,95034.80
2019-04-04T05:48:05.218Z,95031.89
2019-04-04T05:50:34.716Z,95027.91
2019-04-04T05:53:04.837Z,95032.42
2019-04-04T05:55:34.435Z,95030.33
2019-04-04T05:58:03.858Z,95029.52
2019-04-04T06:00:33.252Z,95028.73
2019-04-04T06:03:02.703Z,95035.64
2019-04-04T06:05:32.134Z,95037.75
2019-04-04T06:08:01.439Z,95044.94
2019-04-04T06:10:30.828Z,95044.67
2019-04-04T06:13:00.181Z,95036.70
2019-04-04T06:15:30.059Z,95042.28
2019-04-04T06:18:00.706Z,95037.75
2019-04-04T06:20:30.185Z,95040.41
2019-04-04T06:22:59.620Z,95045.72
2019-04-04T06:25:34.285Z,95048.92
2019-04-04T06:27:59.959Z,95045.98
2019-04-04T06:30:42.235Z,95044.66
2019-04-04T06:33:03.928Z,95045.45
2019-04-04T06:35:31.603Z,95052.09
2019-04-04T06:38:00.771Z,95055.02
2019-04-04T06:40:30.846Z,95060.61
2019-04-04T06:43:03.568Z,95053.70
2019-04-04T06:45:32.746Z,95041.72
2019-04-04T06:48:02.083Z,95048.66
2019-04-04T06:50:31.615Z,95044.92
2019-04-04T06:53:01.058Z,95051.83
2019-04-04T06:55:30.428Z,95053.69
2019-04-04T06:57:59.823Z,95063.27
2019-04-04T07:00:29.264Z,95067.23
2019-04-04T07:02:58.634Z,95058.74
2019-04-04T07:05:27.919Z,95045.73
2019-04-04T07:07:57.302Z,95047.83
2019-04-04T07:10:26.756Z,95045.45
2019-04-04T07:13:14.500Z,95041.47
2019-04-04T07:15:27.282Z,95043.59
2019-04-04T07:17:56.676Z,95039.08
2019-04-04T07:20:28.491Z,95039.61
2019-04-04T07:22:57.194Z,95040.94
2019-04-04T07:25:26.628Z,95033.23
2019-04-04T07:27:56.006Z,95047.05
2019-04-04T07:30:26.091Z,95055.02
2019-04-04T07:32:56.671Z,95053.95
2019-04-04T07:35:26.107Z,95058.72
2019-04-04T07:37:57.569Z,95069.12
2019-04-04T07:40:26.783Z,95073.34
2019-04-04T07:42:56.152Z,95067.50
2019-04-04T07:45:26.775Z,95061.92
2019-04-04T07:47:56.424Z,95058.47
2019-04-04T07:50:26.263Z,95058.47
2019-04-04T07:52:56.539Z,95063.80
2019-04-04T07:55:25.864Z,95071.23
2019-04-04T07:57:55.381Z,95068.28
2019-04-04T08:00:24.821Z,95077.06
2019-04-04T08:02:54.415Z,95067.70
2019-04-04T08:05:23.756Z,95071.14
2019-04-04T08:07:53.267Z,95066.84
2019-04-04T08:10:22.842Z,95071.03
2019-04-04T08:12:52.394Z,95068.40
2019-04-04T08:15:21.803Z,95067.02
2019-04-04T08:17:51.226Z,95066.72
2019-04-04T08:20:20.538Z,95068.31
2019-04-04T08:22:49.949Z,95065.81
2019-04-04T08:25:19.279Z,95061.58
2019-04-04T08:27:48.732Z,95058.41
2019-04-04T08:30:18.232Z,95050.45
2019-04-04T08:32:47.709Z,95051.34
2019-04-04T08:35:17.188Z,95054.32
2019-04-04T08:37:46.666Z,95056.85
2019-04-04T08:40:17.640Z,95055.80
2019-04-04T08:42:47.106Z,95060.94
2019-04-04T08:45:16.378Z,95047.61
2019-04-04T08:47:45.782Z,95043.88
2019-04-04T08:50:15.062Z,95053.61
2019-04-04T08:52:44.481Z,95053.75
2019-04-04T08:55:14.102Z,95044.15
2019-04-04T09:00:19.262Z,95030.05
2019-04-04T09:02:48.618Z,95038.48
2019-04-04T09:05:18.051Z,95034.95
2019-04-04T09:07:47.590Z,95037.59
2019-04-04T09:10:17.215Z,95058.62
2019-04-04T09:12:46.565Z,95057.08
2019-04-04T09:15:16.354Z,95048.94
2019-04-04T09:17:45.701Z,95064.37
2019-04-04T09:20:16.129Z,95066.10
2019-04-04T09:22:45.460Z,95057.96
2019-04-04T09:25:15.227Z,95053.78
2019-04-04T09:27:44.548Z,95051.25
2019-04-04T09:30:14.376Z,95055.80
2019-04-04T09:32:43.809Z,95056.53
2019-04-04T09:35:13.492Z,95063.34
2019-04-04T09:37:42.830Z,95061.87
2019-04-04T09:40:12.799Z,95056.48
2019-04-04T09:43:01.309Z,95046.34
2019-04-04T09:45:30.628Z,95055.76
2019-04-04T09:48:00.047Z,95051.53
2019-04-04T09:50:29.438Z,95042.27
2019-04-04T09:52:59.060Z,95036.65
2019-04-04T09:55:28.651Z,95034.72
2019-04-04T09:57:58.059Z,95025.55
2019-04-04T10:00:27.392Z,95023.69
2019-04-04T10:02:56.687Z,95023.39
2019-04-04T10:05:26.045Z,95037.64
2019-04-04T10:07:55.389Z,95049.45
2019-04-04T10:10:24.937Z,95045.08
2019-04-04T10:12:54.397Z,95032.81
2019-04-04T10:15:23.831Z,95038.42
2019-04-04T10:17:53.225Z,95043.24
2019-04-04T10:20:22.726Z,95059.24
2019-04-04T10:22:52.110Z,95051.25
2019-04-04T10:25:21.490Z,95055.56
2019-04-04T10:27:50.784Z,95071.89
2019-04-04T10:30:20.563Z,95081.58
2019-04-04T10:32:49.893Z,95077.98
2019-04-04T10:35:19.357Z,95084.01
2019-04-04T10:37:48.724Z,95082.86
2019-04-04T10:40:18.909Z,95089.76
2019-04-04T10:42:48.189Z,95099.20
2019-04-04T10:45:17.918Z,95102.94
2019-04-04T10:47:47.334Z,95103.16
2019-04-04T10:50:16.757Z,95093.88
2019-04-04T10:52:46.141Z,95089.83
2019-04-04T10:55:15.552Z,95085.40
2019-04-04T10:57:44.928Z,95087.95
2019-04-04T11:00:15.024Z,95094.09
2019-04-04T11:02:44.314Z,95100.61
2019-04-04T11:05:13.832Z,95102.27
2019-04-04T11:07:43.222Z,95125.92
2019-04-04T11:10:13.070Z,95121.02
2019-04-04T11:12:42.490Z,95135.22
2019-04-04T11:15:11.827Z,95126.16
2019-04-04T11:17:41.324Z,95124.36
2019-04-04T11:20:11.050Z,95128.41
2019-04-04T11:22:40.420Z,95129.03
2019-04-04T11:25:10.169Z,95127.22
2019-04-04T11:27:39.541Z,95128.64
2019-04-04T11:30:09.690Z,95138.05
2019-04-04T11:32:39.076Z,95130.68
2019-04-04T11:35:08.720Z,95128.42
2019-04-04T11:37:38.136Z,95125.10
2019-04-04T11:40:07.560Z,95127.19
2019-04-04T11:42:37.069Z,95133.73
2019-04-04T11:45:07.179Z,95134.84
2019-04-04T11:47:36.778Z,95121.55
2019-04-04T11:50:07.730Z,95113.37
2019-04-04T11:52:37.190Z,95117.27
2019-04-04T11:55:07.177Z,95118.63
2019-04-04T11:57:36.663Z,95115.48
2019-04-04T12:00:07.411Z,95103.19
2019-04-04T12:02:36.768Z,95113.05
2019-04-04T12:05:07.096Z,95116.25
2019-04-04T12:07:38.338Z,95122.44
2019-04-04T12:10:08.503Z,95122.23
2019-04-04T12:12:37.949Z,95122.94
2019-04-04T12:15:08.692Z,95136.77
2019-04-04T12:17:38.059Z,95132.50
2019-04-04T12:20:08.747Z,95127.84
2019-04-04T12:22:38.204Z,95127.01
2019-04-04T12:25:08.144Z,95124.64
2019-04-04T12:27:37.512Z,95129.94
2019-04-04T12:30:08.227Z,95138.63
2019-04-04T12:32:37.575Z,95136.95
2019-04-04T12:35:06.940Z,95148.56
2019-04-04T12:37:36.315Z,95152.75
2019-04-04T12:40:06.046Z,95166.21
2019-04-04T12:42:35.374Z,95189.39
2019-04-04T12:45:05.546Z,95190.83
2019-04-04T12:47:35.195Z,95199.48
2019-04-04T12:50:05.127Z,95204.08
2019-04-04T12:52:36.920Z,95202.77
2019-04-04T12:55:06.841Z,95207.75
2019-04-04T12:57:36.230Z,95212.69
2019-04-04T13:00:07.573Z,95224.21
2019-04-04T13:02:36.965Z,95221.09
2019-04-04T13:05:07.042Z,95218.48
2019-04-04T13:07:36.442Z,95230.43
2019-04-04T13:10:11.715Z,95243.22
2019-04-04T13:12:37.732Z,95254.69
2019-04-04T13:15:08.116Z,95244.57
2019-04-04T13:17:37.379Z,95239.78
2019-04-04T13:20:07.626Z,95235.45
2019-04-04T13:22:37.087Z,95238.59
2019-04-04T13:25:07.646Z,95234.03
2019-04-04T13:27:37.448Z,95227.81
2019-04-04T13:30:08.853Z,95233.59
2019-04-04T13:32:38.216Z,95232.28
2019-04-04T13:35:08.101Z,95245.32
2019-04-04T13:37:37.595Z,95261.53
2019-04-04T13:40:07.867Z,95268.57
2019-04-04T13:42:37.235Z,95262.27
2019-04-04T13:45:07.470Z,95252.49
2019-04-04T13:47:39.230Z,95241.37
2019-04-04T13:50:12.132Z,95221.31
2019-04-04T13:52:40.306Z,95220.16
2019-04-04T13:55:09.874Z,95228.06
2019-04-04T13:57:39.629Z,95229.16
2019-04-04T14:00:10.484Z,95213.38
2019-04-04T14:02:39.861Z,95227.91
2019-04-04T14:05:14.009Z,95241.67
2019-04-04T14:07:43.764Z,95249.38
2019-04-04T14:10:17.081Z,95255.55
2019-04-04T14:12:44.132Z,95240.34
2019-04-04T14:15:13.945Z,95241.64
2019-04-04T14:17:44.084Z,95244.59
2019-04-04T14:20:14.087Z,95247.07
2019-04-04T14:22:47.785Z,95225.52
2019-04-04T14:25:17.630Z,95220.08
2019-04-04T14:27:47.023Z,95231.21
2019-04-04T14:30:17.098Z,95237.73
2019-04-04T14:32:46.444Z,95236.42
2019-04-04T14:35:15.849Z,95238.97
2019-04-04T14:37:45.271Z,95244.99
2019-04-04T14:40:15.241Z,95239.44
2019-04-04T14:42:44.715Z,95245.02
2019-04-04T14:45:14.066Z,95254.92
2019-04-04T14:47:43.448Z,95272.34
2019-04-04T14:50:13.109Z,95269.75
2019-04-04T14:52:42.494Z,95262.53
2019-04-04T14:55:11.990Z,95267.59
2019-04-04T14:57:41.467Z,95262.16
2019-04-04T15:00:15.522Z,95255.16
2019-04-04T15:02:43.640Z,95260.98
2019-04-04T15:05:13.341Z,95269.46
2019-04-04T15:07:42.738Z,95283.33
2019-04-04T15:10:12.184Z,95299.39
2019-04-04T15:12:41.569Z,95311.62
2019-04-04T15:15:11.551Z,95303.42
2019-04-04T15:17:40.955Z,95309.75
2019-04-04T15:20:10.684Z,95312.16
2019-04-04T15:22:40.040Z,95305.24
2019-04-04T15:25:09.534Z,95313.56
2019-04-04T15:27:38.898Z,95313.27
2019-04-04T15:30:08.849Z,95310.20
2019-04-04T15:32:38.257Z,95300.06
2019-04-04T15:35:07.957Z,95303.41
2019-04-04T15:37:37.334Z,95305.94
2019-04-04T15:40:07.187Z,95307.97
2019-04-04T15:42:36.489Z,95303.64
2019-04-04T15:45:06.099Z,95305.27
2019-04-04T15:47:35.578Z,95315.15
2019-04-04T15:50:05.698Z,95308.09
2019-04-04T15:52:35.025Z,95301.84
2019-04-04T15:55:04.763Z,95298.51
2019-04-04T15:57:34.206Z,95306.20
2019-04-04T16:00:03.513Z,95315.04
2019-04-04T16:02:32.917Z,95329.14
2019-04-04T16:05:02.340Z,95330.40
2019-04-04T16:07:31.630Z,95333.53
2019-04-04T16:10:00.983Z,95335.73
2019-04-04T16:13:02.295Z,95330.45
2019-04-04T16:15:23.278Z,95326.09
2019-04-04T16:17:53.546Z,95329.80
2019-04-04T16:20:23.571Z,95337.27
2019-04-04T16:22:53.024Z,95340.36
2019-04-04T16:25:23.527Z,95337.89
2019-04-04T16:27:54.606Z,95343.84
2019-04-04T16:30:24.160Z,95349.31
2019-04-04T16:32:53.456Z,95349.05
2019-04-04T16:35:22.854Z,95353.94
2019-04-04T16:38:42.121Z,95356.41
2019-04-04T16:41:14.362Z,95356.14
2019-04-04T16:43:42.628Z,95355.38
2019-04-04T16:46:12.035Z,95352.23
2019-04-04T16:48:41.440Z,95348.16
2019-04-04T16:51:10.793Z,95343.09
2019-04-04T16:53:40.167Z,95352.00
2019-04-04T16:56:09.577Z,95361.10
2019-04-04T16:58:38.929Z,95362.97
2019-04-04T17:01:08.367Z,95364.30
2019-04-04T17:03:37.785Z,95364.29
2019-04-04T17:06:07.179Z,95366.20
2019-04-04T17:08:36.633Z,95356.33
2019-04-04T17:11:06.352Z,95362.47
2019-04-04T17:13:35.732Z,95392.34
2019-04-04T17:16:05.304Z,95407.27
2019-04-04T17:18:34.696Z,95400.33
2019-04-04T17:21:04.157Z,95405.09
2019-04-04T17:23:33.505Z,95416.02
2019-04-04T17:26:03.000Z,95416.81
2019-04-04T17:28:32.453Z,95424.00
2019-04-04T17:31:02.248Z,95423.44
2019-04-04T17:33:31.727Z,95433.50
2019-04-04T17:36:01.335Z,95447.33
2019-04-04T17:38:30.696Z,95440.12
2019-04-04T17:41:00.107Z,95423.31
2019-04-04T17:43:29.414Z,95442.45
2019-04-04T17:45:58.845Z,95464.75
2019-04-04T17:48:31.239Z,95467.36
2019-04-04T17:50:59.835Z,95459.36
2019-04-04T17:53:29.625Z,95460.17
2019-04-04T17:55:59.473Z,95454.05
2019-04-04T17:58:29.181Z,95455.42
2019-04-04T18:00:58.570Z,95452.95
2019-04-04T18:03:31.217Z,95448.38
2019-04-04T18:06:00.626Z,95431.66
2019-04-04T18:08:30.035Z,95431.41
2019-04-04T18:10:59.277Z,95429.80
2019-04-04T18:13:28.572Z,95426.61
2019-04-04T18:15:57.920Z,95442.28
2019-04-04T18:18:27.321Z,95450.98
2019-04-04T18:20:56.716Z,95455.24
2019-04-04T18:23:26.161Z,95455.70
2019-04-04T18:25:55.550Z,95454.34
2019-04-04T18:28:24.945Z,95454.13
2019-04-04T18:30:54.846Z,95450.36
2019-04-04T18:33:24.310Z,95468.96
2019-04-04T18:35:53.590Z,95477.77
2019-04-04T18:38:23.030Z,95477.73
2019-04-04T18:40:52.576Z,95478.57
2019-04-04T18:43:21.946Z,95477.06
2019-04-04T18:45:51.364Z,95489.30
2019-04-04T18:48:20.860Z,95493.31
2019-04-04T18:50:50.304Z,95494.64
2019-04-04T18:53:19.794Z,95493.56
2019-04-04T18:55:49.168Z,95486.30
2019-04-04T18:58:18.588Z,95486.30
2019-04-04T19:00:47.976Z,95492.34
2019-04-04T19:03:17.588Z,95484.48
2019-04-04T19:05:50.266Z,95490.46
2019-04-04T19:08:19.611Z,95484.03
2019-04-04T19:10:48.973Z,95480.78
2019-04-04T19:13:18.644Z,95481.82
2019-04-04T19:15:48.449Z,95478.80
2019-04-04T19:18:17.822Z,95484.84
2019-04-04T19:20:47.198Z,95488.41
2019-04-04T19:23:19.985Z,95484.09
2019-04-04T19:25:53.766Z,95498.13
2019-04-04T19:28:24.595Z,95507.33
2019-04-04T19:30:54.009Z,95519.95
2019-04-04T19:33:23.551Z,95516.45
2019-04-04T19:35:53.047Z,95513.79
2019-04-04T19:38:22.410Z,95521.93
2019-04-04T19:40:51.816Z,95523.21
2019-04-04T19:43:21.155Z,95519.22
2019-04-04T19:45:50.560Z,95514.72
2019-04-04T19:48:19.901Z,95515.47
2019-04-04T19:50:50.110Z,95519.33
2019-04-04T19:53:19.409Z,95531.56
2019-04-04T19:55:48.758Z,95537.72
2019-04-04T19:58:18.073Z,95546.09
2019-04-04T20:00:47.999Z,95540.05
2019-04-04T20:03:17.413Z,95541.70
2019-04-04T20:05:47.019Z,95537.45
2019-04-04T20:11:11.486Z,95536.97
2019-04-04T20:13:41.851Z,95529.55
2019-04-04T20:16:12.467Z,95512.38
2019-04-04T20:18:41.885Z,95513.38
2019-04-04T20:21:11.259Z,95519.73
2019-04-04T20:23:40.464Z,95520.53
2019-04-04T20:26:09.834Z,95532.94
2019-04-04T20:28:40.217Z,95536.05
2019-04-04T20:31:09.730Z,95546.20
2019-04-04T20:33:39.467Z,95547.13
2019-04-04T20:36:08.860Z,95555.84
2019-04-04T20:39:00.168Z,95550.60
2019-04-04T20:41:38.231Z,95552.77
2019-04-04T20:44:07.690Z,95563.08
2019-04-04T20:46:37.108Z,95569.14
2019-04-04T20:49:06.519Z,95568.86
2019-04-04T20:51:36.050Z,95571.73
2019-04-04T20:54:05.475Z,95575.20
2019-04-04T20:56:34.849Z,95571.95
2019-04-04T20:59:04.198Z,95569.62
2019-04-04T21:01:33.650Z,95568.73
2019-04-04T21:04:03.063Z,95561.89
2019-04-04T21:06:32.483Z,95562.53
2019-04-04T21:09:01.854Z,95561.30
2019-04-04T21:11:31.292Z,95555.59
2019-04-04T21:14:00.616Z,95555.14
2019-04-04T21:16:30.091Z,95564.63
2019-04-04T21:18:59.507Z,95562.20
2019-04-04T21:21:28.848Z,95564.23
2019-04-04T21:23:58.191Z,95568.66
2019-04-04T21:26:27.578Z,95576.74
2019-04-04T21:28:56.933Z,95584.41
2019-04-04T21:31:26.333Z,95591.69
2019-04-04T21:33:55.676Z,95588.13
2019-04-04T21:36:40.423Z,95593.88
2019-04-04T21:39:35.363Z,95596.37
2019-04-04T21:42:04.870Z,95599.80
2019-04-04T21:44:45.354Z,95602.20
2019-04-04T21:47:14.251Z,95608.55
2019-04-04T21:49:43.561Z,95606.09
2019-04-04T21:52:12.906Z,95609.06
2019-04-04T21:54:42.266Z,95609.78
2019-04-04T21:57:11.684Z,95606.01
2019-04-04T21:59:41.027Z,95608.08
2019-04-04T22:02:10.428Z,95604.80
2019-04-04T22:04:39.913Z,95603.91
2019-04-04T22:07:09.457Z,95602.35
2019-04-04T22:09:38.835Z,95597.63
2019-04-04T22:12:08.299Z,95601.79
2019-04-04T22:14:37.610Z,95605.08
2019-04-04T22:17:06.945Z,95613.31
2019-04-04T22:19:36.312Z,95610.47
2019-04-04T22:22:05.798Z,95608.41
2019-04-04T22:24:35.206Z,95611.77
2019-04-04T22:27:04.696Z,95614.64
2019-04-04T22:29:34.052Z,95620.58
2019-04-04T22:32:03.477Z,95619.44
2019-04-04T22:34:32.801Z,95615.99
2019-04-04T22:37:02.194Z,95608.77
2019-04-04T22:39:31.640Z,95615.38
2019-04-04T22:42:01.209Z,95623.35
2019-04-04T22:44:35.019Z,95626.18
2019-04-04T22:47:01.762Z,95625.04
2019-04-04T22:49:31.191Z,95622.80
2019-04-04T22:52:00.623Z,95623.20
2019-04-04T22:54:30.019Z,95616.13
2019-04-04T22:56:59.551Z,95611.13
2019-04-04T22:59:28.999Z,95599.78
2019-04-04T23:01:58.330Z,95605.55
2019-04-04T23:04:27.680Z,95606.80
2019-04-04T23:06:57.186Z,95613.70
2019-04-04T23:09:26.612Z,95619.34
2019-04-04T23:11:56.129Z,95619.61
2019-04-04T23:14:25.441Z,95630.29
2019-04-04T23:16:54.864Z,95639.80
2019-04-04T23:19:24.303Z,95640.38
2019-04-04T23:21:53.866Z,95644.50
2019-04-04T23:24:23.211Z,95648.64
2019-04-04T23:26:52.605Z,95653.97
2019-04-04T23:29:22.061Z,95658.52
2019-04-04T23:31:51.365Z,95658.96
2019-04-04T23:34:20.911Z,95662.89
2019-04-04T23:36:50.353Z,95663.22
2019-04-04T23:39:19.721Z,95655.98
2019-04-04T23:41:49.081Z,95655.41
2019-04-04T23:44:18.523Z,95656.09
2019-04-04T23:46:47.924Z,95648.09
2019-04-04T23:49:17.330Z,95646.39
2019-04-04T23:51:46.732Z,95646.14
2019-04-04T23:54:16.083Z,95639.70
2019-04-04T23:56:45.449Z,95639.70
2019-04-04T23:59:14.922Z,95636.30
